Time;durP1;ratioP1;P1;durP2;ratioP2;P2;SDS_P1;SDS_P2;PMS_P1;PMS_P2;Temp;Humidity;BMP_temperature;BMP_pressure;BME280_temperature;BME280_humidity;BME280_pressure;Samples;Min_cycle;Max_cycle;Signal;HPM_P1;HPM_P2
2023/08/25 00:00:39;;;;;;;46.67;24.60;;;;;;;18.89;100.00;100655.81;5089908;28;20119;-77
2023/08/25 00:03:05;;;;;;;51.28;24.42;;;;;;;18.88;100.00;100651.28;5091057;28;20120;-78
2023/08/25 00:05:38;;;;;;;42.08;24.42;;;;;;;18.89;100.00;100654.97;5086893;28;20031;-77
2023/08/25 00:08:03;;;;;;;41.10;23.63;;;;;;;18.82;100.00;100656.66;5093364;28;20052;-78
2023/08/25 00:10:31;;;;;;;44.63;24.55;;;;;;;18.82;100.00;100665.84;5092424;28;20059;-78
2023/08/25 00:12:56;;;;;;;38.95;23.13;;;;;;;18.82;100.00;100662.22;5090056;28;20498;-77
2023/08/25 00:15:22;;;;;;;44.33;24.08;;;;;;;18.80;100.00;100665.19;5093544;28;20036;-78
2023/08/25 00:17:50;;;;;;;51.00;26.70;;;;;;;18.89;100.00;100677.16;5073122;28;20024;-78
2023/08/25 00:20:15;;;;;;;51.95;28.17;;;;;;;18.93;100.00;100678.50;5091245;28;20024;-78
2023/08/25 00:22:41;;;;;;;74.00;30.08;;;;;;;19.00;100.00;100679.50;5086151;28;20078;-77
2023/08/25 00:25:07;;;;;;;60.78;28.17;;;;;;;18.94;100.00;100674.69;5070564;28;20550;-78
2023/08/25 00:27:33;;;;;;;53.65;26.10;;;;;;;18.83;100.00;100673.19;5087877;28;20028;-78
2023/08/25 00:29:58;;;;;;;66.55;28.40;;;;;;;18.90;100.00;100679.72;5089597;28;20440;-77
2023/08/25 00:32:25;;;;;;;49.10;24.70;;;;;;;18.82;100.00;100684.41;5090149;28;20035;-78
2023/08/25 00:34:52;;;;;;;49.70;25.08;;;;;;;18.80;100.00;100681.81;5091076;28;20028;-78
2023/08/25 00:37:19;;;;;;;62.10;25.85;;;;;;;18.76;100.00;100683.25;5088741;28;20040;-78
2023/08/25 00:39:45;;;;;;;45.42;24.25;;;;;;;18.84;100.00;100688.78;5091463;28;20031;-78
2023/08/25 00:42:11;;;;;;;76.03;27.73;;;;;;;18.75;100.00;100687.03;5083687;28;20036;-78
2023/08/25 00:44:36;;;;;;;69.03;29.40;;;;;;;18.72;100.00;100690.16;5086336;28;20122;-78
2023/08/25 00:47:03;;;;;;;57.92;27.45;;;;;;;18.56;100.00;100691.09;5073745;28;20048;-78
2023/08/25 00:49:29;;;;;;;63.72;28.50;;;;;;;18.68;100.00;100688.81;5087867;28;20517;-78
2023/08/25 00:51:55;;;;;;;70.68;30.15;;;;;;;18.74;100.00;100697.28;5091566;28;20032;-78
2023/08/25 00:54:25;;;;;;;76.65;32.67;;;;;;;18.77;100.00;100696.03;5087770;28;20054;-78
2023/08/25 00:56:51;;;;;;;79.68;33.70;;;;;;;18.74;100.00;100694.50;5092241;28;20032;-78
2023/08/25 00:59:18;;;;;;;74.28;31.40;;;;;;;18.67;100.00;100692.63;5088466;28;20028;-78
2023/08/25 01:01:45;;;;;;;85.28;32.47;;;;;;;18.65;100.00;100678.94;5086844;28;20027;-77
2023/08/25 01:04:11;;;;;;;57.30;29.23;;;;;;;18.68;100.00;100680.50;5077313;28;20506;-77
2023/08/25 01:06:37;;;;;;;84.78;31.70;;;;;;;18.70;100.00;100681.16;5086176;28;20027;-78
2023/08/25 01:09:04;;;;;;;56.03;27.27;;;;;;;18.48;100.00;100689.22;5070403;28;20398;-78
2023/08/25 01:12:04;;;;;;;57.13;27.48;;;;;;;18.56;100.00;100688.31;5081535;28;20440;-77
2023/08/25 01:15:01;;;;;;;64.45;30.55;;;;;;;18.59;100.00;100685.19;5089419;28;20024;-77
2023/08/25 01:17:39;;;;;;;75.93;31.98;;;;;;;18.64;100.00;100677.19;5099180;28;20035;-78
2023/08/25 01:20:08;;;;;;;66.57;30.83;;;;;;;18.54;100.00;100676.53;5088136;28;20093;-77
2023/08/25 01:23:07;;;;;;;84.72;32.42;;;;;;;18.51;100.00;100687.97;5090392;28;20027;-77
2023/08/25 01:25:33;;;;;;;68.68;32.58;;;;;;;18.49;100.00;100685.38;5082658;28;20493;-78
2023/08/25 01:28:00;;;;;;;84.40;34.60;;;;;;;18.51;100.00;100687.97;5087634;28;20032;-78
2023/08/25 01:30:27;;;;;;;84.40;33.55;;;;;;;18.44;100.00;100682.28;5085084;28;20032;-77
2023/08/25 01:32:59;;;;;;;86.13;34.00;;;;;;;18.35;100.00;100675.91;5083830;28;20028;-77
2023/08/25 01:35:50;;;;;;;56.30;29.25;;;;;;;18.31;100.00;100676.44;5089567;28;20032;-78
2023/08/25 01:38:18;;;;;;;52.38;27.92;;;;;;;18.30;100.00;100677.47;5083809;28;20510;-77
2023/08/25 01:40:51;;;;;;;68.65;33.63;;;;;;;18.43;100.00;100685.22;5080243;28;20055;-83
2023/08/25 01:43:22;;;;;;;62.13;30.60;;;;;;;18.34;100.00;100670.53;5080856;28;20066;-83
2023/08/25 01:45:50;;;;;;;85.70;33.03;;;;;;;18.33;100.00;100674.34;5085793;28;20059;-83
2023/08/25 01:48:18;;;;;;;79.13;32.85;;;;;;;18.29;100.00;100670.22;5080335;28;20075;-83
2023/08/25 01:50:43;;;;;;;73.18;32.00;;;;;;;18.25;100.00;100668.81;5089621;28;20512;-83
2023/08/25 01:53:10;;;;;;;82.40;34.00;;;;;;;18.28;100.00;100672.13;5088381;28;20016;-83
2023/08/25 01:55:35;;;;;;;64.88;30.17;;;;;;;18.29;100.00;100664.66;5087449;28;20024;-83
2023/08/25 01:58:02;;;;;;;84.53;33.63;;;;;;;18.25;100.00;100675.25;5087876;28;20107;-83
2023/08/25 02:00:28;;;;;;;83.60;35.25;;;;;;;18.25;100.00;100666.94;5090056;28;20046;-83
2023/08/25 02:02:53;;;;;;;110.05;36.33;;;;;;;18.22;100.00;100671.94;5084038;28;20031;-83
2023/08/25 02:05:18;;;;;;;85.32;32.75;;;;;;;18.10;100.00;100672.34;5087816;28;20490;-84
2023/08/25 02:07:44;;;;;;;67.78;32.90;;;;;;;18.08;100.00;100671.63;5069755;28;20115;-83
2023/08/25 02:10:10;;;;;;;72.45;30.90;;;;;;;18.05;100.00;100671.09;5088195;28;20382;-83
2023/08/25 02:12:35;;;;;;;89.93;31.38;;;;;;;17.97;100.00;100656.25;5090272;28;20032;-83
2023/08/25 02:15:00;;;;;;;109.90;32.80;;;;;;;17.92;100.00;100661.44;5069733;28;20036;-84
2023/08/25 02:17:26;;;;;;;122.53;29.48;;;;;;;18.07;100.00;100658.81;5089571;28;20474;-83
2023/08/25 02:19:51;;;;;;;69.45;29.92;;;;;;;17.91;100.00;100656.94;5085538;28;20043;-83
2023/08/25 02:22:17;;;;;;;97.43;29.35;;;;;;;18.02;100.00;100658.50;5079228;28;20040;-82
2023/08/25 02:24:42;;;;;;;100.97;31.98;;;;;;;17.90;100.00;100657.09;5062034;28;20040;-83
2023/08/25 02:27:08;;;;;;;54.22;28.13;;;;;;;17.87;100.00;100657.41;5086964;28;20036;-82
2023/08/25 02:29:33;;;;;;;112.63;32.95;;;;;;;17.93;100.00;100656.75;5089893;28;20845;-83
2023/08/25 02:31:59;;;;;;;167.95;33.65;;;;;;;17.97;100.00;100647.94;5088075;28;20034;-83
2023/08/25 02:34:25;;;;;;;109.93;28.33;;;;;;;17.98;100.00;100648.78;5086416;28;20118;-83
2023/08/25 02:36:50;;;;;;;125.13;28.50;;;;;;;17.92;100.00;100646.69;5085490;28;20036;-83
2023/08/25 02:39:15;;;;;;;216.43;33.55;;;;;;;17.85;100.00;100632.66;5084210;28;20107;-83
2023/08/25 02:41:42;;;;;;;114.13;30.05;;;;;;;17.88;100.00;100634.25;5080985;28;20033;-83
2023/08/25 02:44:07;;;;;;;79.53;27.38;;;;;;;17.97;100.00;100623.00;5079333;28;20487;-83
2023/08/25 02:46:33;;;;;;;121.25;33.35;;;;;;;17.91;100.00;100620.06;5068595;28;20056;-83
2023/08/25 02:48:58;;;;;;;76.18;30.02;;;;;;;17.86;100.00;100615.00;5090043;28;20040;-83
2023/08/25 02:51:23;;;;;;;99.35;30.70;;;;;;;17.84;100.00;100611.56;5060604;28;20016;-83
2023/08/25 02:53:49;;;;;;;90.82;31.63;;;;;;;17.85;100.00;100616.03;5087565;28;20028;-83
2023/08/25 02:56:14;;;;;;;64.20;29.25;;;;;;;17.81;100.00;100615.53;5085223;28;20067;-83
2023/08/25 02:58:40;;;;;;;56.40;25.88;;;;;;;17.76;100.00;100603.25;5053962;28;20051;-83
2023/08/25 03:01:14;;;;;;;65.68;27.55;;;;;;;17.76;100.00;100595.81;5068390;28;20035;-83
2023/08/25 03:03:40;;;;;;;74.47;26.80;;;;;;;17.80;100.00;100593.53;5085968;28;20036;-83
2023/08/25 03:06:05;;;;;;;76.22;30.35;;;;;;;17.85;100.00;100598.56;5082494;28;20490;-82
2023/08/25 03:08:31;;;;;;;114.72;30.10;;;;;;;17.84;100.00;100597.72;5084032;28;20036;-83
2023/08/25 03:10:58;;;;;;;63.38;30.05;;;;;;;17.72;100.00;100591.63;5074837;28;20534;-83
2023/08/25 03:13:23;;;;;;;84.85;32.20;;;;;;;17.64;100.00;100586.13;5082379;28;20028;-83
2023/08/25 03:15:50;;;;;;;75.35;30.23;;;;;;;17.63;100.00;100593.56;5080920;28;20073;-83
2023/08/25 03:18:16;;;;;;;88.95;28.70;;;;;;;17.57;100.00;100585.94;5086385;28;20038;-83
2023/08/25 03:20:41;;;;;;;118.38;28.95;;;;;;;17.64;100.00;100578.69;5081813;28;20024;-83
2023/08/25 03:23:06;;;;;;;128.93;31.25;;;;;;;17.54;100.00;100579.91;5084648;28;20069;-83
2023/08/25 03:25:36;;;;;;;188.57;33.75;;;;;;;17.50;100.00;100578.53;5085835;28;20036;-83
2023/08/25 03:28:01;;;;;;;218.57;32.65;;;;;;;17.47;100.00;100570.56;5072615;28;20029;-83
2023/08/25 03:30:28;;;;;;;212.55;34.33;;;;;;;17.45;100.00;100574.38;5082768;28;20436;-84
2023/08/25 03:32:53;;;;;;;90.85;28.23;;;;;;;17.49;100.00;100568.50;5084736;28;20789;-83
2023/08/25 03:35:19;;;;;;;102.75;29.50;;;;;;;17.45;100.00;100566.06;5081886;28;20040;-82
2023/08/25 03:37:44;;;;;;;131.07;27.27;;;;;;;17.56;100.00;100569.50;5076605;28;20024;-83
2023/08/25 03:40:10;;;;;;;186.23;34.20;;;;;;;17.42;100.00;100562.78;5063490;28;20116;-83
2023/08/25 03:42:36;;;;;;;104.30;28.73;;;;;;;17.47;100.00;100562.28;5078305;28;20034;-83
2023/08/25 03:45:01;;;;;;;116.18;27.38;;;;;;;17.35;100.00;100565.38;5087297;28;20045;-83
2023/08/25 03:47:27;;;;;;;186.43;31.67;;;;;;;17.30;100.00;100561.38;5083886;28;20098;-83
2023/08/25 03:49:52;;;;;;;114.72;26.90;;;;;;;17.36;100.00;100567.09;5084890;28;20441;-83
2023/08/25 03:52:19;;;;;;;218.50;33.40;;;;;;;17.36;100.00;100561.56;5084370;28;20093;-83
2023/08/25 03:54:44;;;;;;;126.57;29.95;;;;;;;17.43;100.00;100559.84;5087116;28;20027;-83
2023/08/25 03:57:11;;;;;;;72.63;25.13;;;;;;;17.49;100.00;100571.25;5075821;28;20024;-83
2023/08/25 03:59:37;;;;;;;70.90;26.17;;;;;;;17.39;100.00;100563.97;5077755;28;20441;-78
2023/08/25 04:02:03;;;;;;;50.42;24.15;;;;;;;17.37;100.00;100551.38;5083259;28;20375;-77
2023/08/25 04:04:31;;;;;;;80.43;26.70;;;;;;;17.30;100.00;100547.56;5083451;28;20028;-78
2023/08/25 04:06:57;;;;;;;87.28;28.00;;;;;;;17.38;100.00;100550.31;5078451;28;20451;-77
2023/08/25 04:09:22;;;;;;;68.88;26.40;;;;;;;17.29;100.00;100548.59;5081625;28;20118;-77
2023/08/25 04:11:48;;;;;;;90.35;27.25;;;;;;;17.25;100.00;100543.41;5076220;28;20383;-78
2023/08/25 04:14:14;;;;;;;63.90;24.98;;;;;;;17.27;100.00;100544.09;5081458;28;20032;-78
2023/08/25 04:16:39;;;;;;;51.33;23.98;;;;;;;17.24;100.00;100540.81;5083206;28;20051;-77
2023/08/25 04:19:05;;;;;;;106.05;25.23;;;;;;;17.18;100.00;100544.28;5085284;28;20521;-78
2023/08/25 04:21:31;;;;;;;117.85;26.52;;;;;;;17.14;100.00;100548.44;5085208;28;20389;-76
2023/08/25 04:23:56;;;;;;;200.63;30.52;;;;;;;17.09;100.00;100537.88;5083642;28;22244;-77
2023/08/25 04:26:21;;;;;;;131.60;26.08;;;;;;;17.11;100.00;100543.25;5081125;28;20459;-77
2023/08/25 04:28:47;;;;;;;100.63;25.30;;;;;;;17.08;100.00;100541.66;5080974;28;20059;-77
2023/08/25 04:31:12;;;;;;;118.28;28.90;;;;;;;17.04;100.00;100540.31;5082924;28;20079;-78
2023/08/25 04:33:38;;;;;;;72.80;24.00;;;;;;;17.11;100.00;100540.47;5078792;28;20548;-77
2023/08/25 04:36:03;;;;;;;117.93;24.42;;;;;;;17.04;100.00;100538.38;5079133;28;20039;-77
2023/08/25 04:38:29;;;;;;;119.95;25.95;;;;;;;17.05;100.00;100542.91;5076534;28;20016;-75
2023/08/25 04:40:54;;;;;;;121.40;25.52;;;;;;;16.88;100.00;100546.66;5062773;28;20032;-75
2023/08/25 04:43:20;;;;;;;45.88;20.90;;;;;;;16.95;100.00;100549.63;5079204;28;20028;-76
2023/08/25 04:45:46;;;;;;;76.45;20.88;;;;;;;16.98;100.00;100547.38;5069211;28;20497;-75
2023/08/25 04:48:12;;;;;;;48.45;21.48;;;;;;;16.98;100.00;100543.75;5056344;28;20425;-76
2023/08/25 04:50:38;;;;;;;73.22;23.70;;;;;;;16.96;100.00;100552.22;5091203;28;20478;-77
2023/08/25 04:53:03;;;;;;;105.18;24.88;;;;;;;17.02;100.00;100536.81;5086663;28;20047;-76
2023/08/25 04:55:29;;;;;;;46.70;21.55;;;;;;;17.17;100.00;100537.03;5083131;28;20509;-77
2023/08/25 04:57:55;;;;;;;85.85;25.70;;;;;;;-147.95;100.00;58458.38;5087878;28;20021;-76
2023/08/25 05:00:21;;;;;;;85.50;26.27;;;;;;;-147.95;100.00;58458.38;5084338;28;20038;-77
2023/08/25 05:02:48;;;;;;;54.50;23.42;;;;;;;-147.95;100.00;58458.38;5082484;28;20115;-77
2023/08/25 05:05:16;;;;;;;76.30;26.33;;;;;;;-147.95;100.00;58458.38;5085907;28;20459;-77
2023/08/25 05:07:42;;;;;;;56.72;23.20;;;;;;;-147.95;100.00;58458.38;5085163;28;20028;-77
2023/08/25 05:10:08;;;;;;;52.45;22.15;;;;;;;-147.95;100.00;58458.38;5086463;28;20485;-77
2023/08/25 05:12:34;;;;;;;63.10;22.65;;;;;;;-147.95;100.00;58458.38;5088502;28;20574;-77
2023/08/25 05:14:59;;;;;;;84.70;24.02;;;;;;;-147.95;100.00;58458.38;5069854;28;20122;-77
2023/08/25 05:17:24;;;;;;;119.43;27.58;;;;;;;-147.95;100.00;58458.38;5075237;28;20028;-76
2023/08/25 05:19:52;;;;;;;83.18;22.83;;;;;;;-147.95;100.00;58458.38;5089959;28;20032;-77
2023/08/25 05:22:18;;;;;;;90.07;22.50;;;;;;;-147.95;100.00;58458.38;5081043;28;20131;-78
2023/08/25 05:24:43;;;;;;;55.25;23.83;;;;;;;-147.95;100.00;58458.38;5072738;28;20582;-77
2023/08/25 05:27:09;;;;;;;168.00;26.67;;;;;;;-147.95;100.00;58458.38;5089167;28;20450;-77
2023/08/25 05:29:36;;;;;;;88.25;26.60;;;;;;;-147.95;100.00;58458.38;5086248;28;20024;-77
2023/08/25 05:32:01;;;;;;;49.50;24.13;;;;;;;-147.95;100.00;58458.38;5082654;28;20028;-77
2023/08/25 05:34:27;;;;;;;87.13;25.45;;;;;;;-147.95;100.00;58458.38;5073074;28;20085;-77
2023/08/25 05:36:53;;;;;;;61.55;26.05;;;;;;;-147.95;100.00;58458.38;5070433;28;20146;-77
2023/08/25 05:39:20;;;;;;;90.35;26.45;;;;;;;-147.95;100.00;58458.38;5062663;28;20527;-77
2023/08/25 05:41:46;;;;;;;54.38;25.73;;;;;;;-147.95;100.00;58458.38;5086421;28;20055;-77
2023/08/25 05:44:11;;;;;;;72.03;29.13;;;;;;;-147.95;100.00;58458.38;5081903;28;20063;-77
2023/08/25 05:46:39;;;;;;;73.78;30.17;;;;;;;-147.95;100.00;58458.38;5080069;28;20048;-77
2023/08/25 05:49:04;;;;;;;82.43;33.30;;;;;;;-147.95;100.00;58458.38;5090392;28;20020;-78
2023/08/25 05:51:31;;;;;;;74.22;32.05;;;;;;;-147.95;100.00;58458.38;5085684;28;20028;-77
2023/08/25 05:53:56;;;;;;;84.45;33.42;;;;;;;-147.95;100.00;58458.38;5087957;28;20081;-78
2023/08/25 05:56:21;;;;;;;67.50;30.70;;;;;;;-147.95;100.00;58458.38;5064795;28;20040;-77
2023/08/25 05:58:47;;;;;;;77.55;31.42;;;;;;;-147.95;100.00;58458.38;5080765;28;20502;-77
2023/08/25 06:01:12;;;;;;;59.90;30.83;;;;;;;-147.95;100.00;58458.38;5083684;28;20498;-77
2023/08/25 06:03:38;;;;;;;59.75;29.75;;;;;;;-147.95;100.00;58458.38;5088748;28;20034;-77
2023/08/25 06:06:04;;;;;;;56.55;31.40;;;;;;;-147.95;100.00;58458.38;5087740;28;20043;-77
2023/08/25 06:08:31;;;;;;;63.80;32.50;;;;;;;-147.95;100.00;58458.38;5084239;28;20028;-77
2023/08/25 06:10:57;;;;;;;65.35;30.88;;;;;;;-147.95;100.00;58458.38;5076599;28;20044;-77
2023/08/25 06:13:23;;;;;;;60.67;31.27;;;;;;;-147.95;100.00;58458.38;5083257;28;20517;-77
2023/08/25 06:15:52;;;;;;;59.20;29.88;;;;;;;-147.95;100.00;58458.38;5084722;28;20060;-78
2023/08/25 06:18:17;;;;;;;59.70;30.85;;;;;;;-147.95;100.00;58458.38;5068173;28;20119;-77
2023/08/25 06:20:43;;;;;;;55.40;28.40;;;;;;;-147.95;100.00;58458.38;5075472;28;20126;-81
2023/08/25 06:23:11;;;;;;;55.05;28.08;;;;;;;-147.95;100.00;58458.38;5083467;28;20035;-81
2023/08/25 06:25:37;;;;;;;57.63;29.95;;;;;;;-147.95;100.00;58458.38;5086823;28;20115;-82
2023/08/25 06:28:03;;;;;;;57.17;29.33;;;;;;;-147.95;100.00;58458.38;5086807;28;20103;-84
2023/08/25 06:30:32;;;;;;;59.67;29.40;;;;;;;-147.95;100.00;58458.38;5081764;28;20044;-82
2023/08/25 06:32:58;;;;;;;57.50;28.40;;;;;;;-147.95;100.00;58458.38;5067227;28;20036;-82
2023/08/25 06:35:24;;;;;;;60.13;28.95;;;;;;;-147.95;100.00;58458.38;5070350;28;20093;-83
2023/08/25 06:37:49;;;;;;;55.80;28.95;;;;;;;-147.95;100.00;58458.38;5084962;28;20077;-82
2023/08/25 06:40:15;;;;;;;71.15;31.00;;;;;;;-147.95;100.00;58458.38;5083238;28;20040;-83
2023/08/25 06:42:42;;;;;;;55.05;28.42;;;;;;;-147.95;100.00;58458.38;5097368;28;20060;-81
2023/08/25 06:45:08;;;;;;;63.28;30.52;;;;;;;-147.95;100.00;58458.38;5083712;28;20335;-80
2023/08/25 06:47:34;;;;;;;69.20;30.20;;;;;;;-147.95;100.00;58458.38;5078417;28;20052;-80
2023/08/25 06:50:01;;;;;;;82.05;39.92;;;;;;;-147.95;100.00;58458.38;5084567;28;20036;-80
2023/08/25 06:52:26;;;;;;;73.90;37.10;;;;;;;-147.95;100.00;58458.38;5078175;28;20040;-80
2023/08/25 06:54:52;;;;;;;74.05;33.03;;;;;;;-147.95;100.00;58458.38;5083360;28;20031;-80
2023/08/25 06:57:17;;;;;;;74.43;31.42;;;;;;;-147.95;100.00;58458.38;5085189;28;20040;-80
2023/08/25 06:59:43;;;;;;;69.22;31.33;;;;;;;-147.95;100.00;58458.38;5066247;28;20028;-80
2023/08/25 07:02:08;;;;;;;69.22;32.35;;;;;;;-147.95;100.00;58458.38;5070829;28;20122;-80
2023/08/25 07:04:34;;;;;;;85.30;35.58;;;;;;;-147.95;100.00;58458.38;5049904;28;20066;-81
2023/08/25 07:07:00;;;;;;;75.63;34.85;;;;;;;-147.95;100.00;58458.38;5076581;28;20032;-81
2023/08/25 07:09:27;;;;;;;83.32;32.17;;;;;;;-147.95;100.00;58458.38;5083760;28;20024;-80
2023/08/25 07:11:54;;;;;;;70.22;32.55;;;;;;;-147.95;100.00;58458.38;5065080;28;20040;-82
2023/08/25 07:14:19;;;;;;;94.32;34.00;;;;;;;-147.95;100.00;58458.38;5084021;28;20031;-84
2023/08/25 07:16:44;;;;;;;88.60;33.78;;;;;;;-147.95;100.00;58458.38;5089146;28;20497;-82
2023/08/25 07:19:10;;;;;;;134.57;38.80;;;;;;;-147.95;100.00;58458.38;5081949;28;20095;-82
2023/08/25 07:21:36;;;;;;;93.18;35.40;;;;;;;-147.95;100.00;58458.38;5073260;28;20339;-83
2023/08/25 07:24:01;;;;;;;105.93;36.85;;;;;;;-147.95;100.00;58458.38;5081686;28;20098;-83
2023/08/25 07:26:27;;;;;;;113.38;35.65;;;;;;;-147.95;100.00;58458.38;5079282;28;20200;-83
2023/08/25 07:28:53;;;;;;;110.40;35.58;;;;;;;-147.95;100.00;58458.38;5084575;28;20013;-78
2023/08/25 07:31:18;;;;;;;102.32;35.90;;;;;;;-147.95;100.00;58458.38;5086258;28;20047;-83
2023/08/25 07:33:43;;;;;;;125.07;37.38;;;;;;;-147.95;100.00;58458.38;5084064;28;20032;-83
2023/08/25 07:36:09;;;;;;;95.50;33.00;;;;;;;-147.95;100.00;58458.38;5071144;28;20031;-83
2023/08/25 07:38:35;;;;;;;112.78;35.72;;;;;;;-147.95;100.00;58458.38;5076623;28;20025;-85
2023/08/25 07:41:00;;;;;;;113.75;37.30;;;;;;;-147.95;100.00;58458.38;5083202;28;20040;-85
2023/08/25 07:43:26;;;;;;;101.63;36.72;;;;;;;-147.95;100.00;58458.38;5086512;28;20020;-85
2023/08/25 07:45:56;;;;;;;119.05;38.47;;;;;;;-147.95;100.00;58458.38;5083151;28;20045;-85
2023/08/25 07:48:22;;;;;;;134.05;40.35;;;;;;;-147.95;100.00;58458.38;5085838;28;20066;-85
2023/08/25 07:50:49;;;;;;;163.35;41.30;;;;;;;-147.95;100.00;58458.38;5087134;28;20024;-86
2023/08/25 07:53:14;;;;;;;185.02;43.45;;;;;;;-147.95;100.00;58458.38;5083079;28;20095;-85
2023/08/25 07:55:40;;;;;;;182.02;42.72;;;;;;;-147.95;100.00;58458.38;5085214;28;20023;-88
2023/08/25 07:58:08;;;;;;;288.05;47.03;;;;;;;-147.95;100.00;58458.38;5066627;28;20025;-89
2023/08/25 08:00:36;;;;;;;147.23;42.50;;;;;;;-147.95;100.00;58458.38;5050354;28;20047;-88
2023/08/25 08:03:03;;;;;;;283.52;49.78;;;;;;;-147.95;100.00;58458.38;5087597;28;20546;-87
2023/08/25 08:05:30;;;;;;;133.85;43.67;;;;;;;-147.95;100.00;58458.38;5083572;28;20486;-87
2023/08/25 08:07:56;;;;;;;141.60;43.47;;;;;;;-147.95;100.00;58458.38;5076545;28;20028;-87
2023/08/25 08:10:21;;;;;;;141.35;45.33;;;;;;;-147.95;100.00;58458.38;5087939;28;20034;-87
2023/08/25 08:12:47;;;;;;;178.05;48.83;;;;;;;-147.95;100.00;58458.38;5081889;28;20028;-87
2023/08/25 08:15:13;;;;;;;170.02;48.50;;;;;;;-147.95;100.00;58458.38;5068204;28;20039;-86
2023/08/25 08:17:39;;;;;;;150.20;49.10;;;;;;;-147.95;100.00;58458.38;5065784;28;20134;-86
2023/08/25 08:20:06;;;;;;;159.50;48.13;;;;;;;-147.95;100.00;58458.38;5082946;28;20024;-86
2023/08/25 08:22:31;;;;;;;178.20;47.15;;;;;;;-147.95;100.00;58458.38;5087745;28;20070;-86
2023/08/25 08:24:57;;;;;;;156.02;47.28;;;;;;;-147.95;100.00;58458.38;5083751;28;20024;-86
2023/08/25 08:27:25;;;;;;;161.30;47.25;;;;;;;-147.95;100.00;58458.38;5083139;28;20069;-86
2023/08/25 08:29:51;;;;;;;178.27;51.00;;;;;;;-147.95;100.00;58458.38;5085579;28;20033;-86
2023/08/25 08:32:17;;;;;;;174.10;51.67;;;;;;;-147.95;100.00;58458.38;5087409;28;20020;-86
2023/08/25 08:34:43;;;;;;;181.02;52.15;;;;;;;-147.95;100.00;58458.38;5089317;28;20025;-87
2023/08/25 08:37:08;;;;;;;153.88;48.65;;;;;;;-147.95;100.00;58458.38;5073897;28;20032;-86
2023/08/25 08:39:37;;;;;;;176.73;50.70;;;;;;;-147.95;100.00;58458.38;5071612;28;20016;-79
2023/08/25 08:42:03;;;;;;;172.35;50.47;;;;;;;-147.95;100.00;58458.38;5078605;28;20020;-79
2023/08/25 08:44:30;;;;;;;154.02;49.28;;;;;;;-147.95;100.00;58458.38;5086850;28;20043;-80
2023/08/25 08:46:56;;;;;;;144.38;48.10;;;;;;;-147.95;100.00;58458.38;5086251;28;20040;-79
2023/08/25 08:49:26;;;;;;;182.80;53.38;;;;;;;-147.95;100.00;58458.38;5084848;28;20119;-79
2023/08/25 08:51:54;;;;;;;165.32;50.90;;;;;;;-147.95;100.00;58458.38;5080963;28;20376;-79
2023/08/25 08:54:19;;;;;;;193.90;53.55;;;;;;;-147.95;100.00;58458.38;5075953;28;20036;-79
2023/08/25 08:56:50;;;;;;;184.18;53.17;;;;;;;-147.95;100.00;58458.38;5083165;28;20047;-80
2023/08/25 08:59:16;;;;;;;176.70;50.75;;;;;;;-147.95;100.00;58458.38;5091026;28;20069;-80
2023/08/25 09:01:43;;;;;;;214.48;55.38;;;;;;;-147.95;100.00;58458.38;5086868;28;20024;-79
2023/08/25 09:04:09;;;;;;;159.38;47.75;;;;;;;-147.95;100.00;58458.38;5048751;28;20044;-81
2023/08/25 09:06:37;;;;;;;349.35;60.67;;;;;;;-147.95;100.00;58458.38;5071498;28;22063;-80
2023/08/25 09:09:06;;;;;;;209.43;54.60;;;;;;;-147.95;100.00;58458.38;5074639;28;20395;-79
2023/08/25 09:11:35;;;;;;;202.50;54.72;;;;;;;-147.95;100.00;58458.38;5085619;28;20032;-79
2023/08/25 09:14:04;;;;;;;217.90;55.67;;;;;;;-147.95;100.00;58458.38;5085211;28;20039;-79
2023/08/25 09:16:34;;;;;;;199.80;54.15;;;;;;;-147.95;100.00;58458.38;5091276;28;20112;-79
2023/08/25 09:19:02;;;;;;;176.30;53.13;;;;;;;-147.95;100.00;58458.38;5086427;28;20042;-79
2023/08/25 09:21:28;;;;;;;243.13;58.45;;;;;;;-147.95;100.00;58458.38;5082933;28;20035;-79
2023/08/25 09:24:05;;;;;;;212.40;55.60;;;;;;;-147.95;100.00;58458.38;5088312;28;20032;-79
2023/08/25 09:26:38;;;;;;;209.27;55.20;;;;;;;-147.95;100.00;58458.38;5070027;28;20482;-79
2023/08/25 09:29:03;;;;;;;172.18;51.08;;;;;;;-147.95;100.00;58458.38;5070919;28;20028;-79
2023/08/25 09:31:31;;;;;;;182.68;54.55;;;;;;;-147.95;100.00;58458.38;5070688;28;20093;-80
2023/08/25 09:34:02;;;;;;;251.77;57.38;;;;;;;-147.95;100.00;58458.38;5089554;28;20024;-79
2023/08/25 09:36:29;;;;;;;262.17;59.15;;;;;;;-147.95;100.00;58458.38;5088809;28;20027;-79
2023/08/25 09:38:55;;;;;;;261.15;58.97;;;;;;;-147.95;100.00;58458.38;5085811;28;20020;-80
2023/08/25 09:41:29;;;;;;;231.43;55.30;;;;;;;-147.95;100.00;58458.38;5086758;28;20042;-80
2023/08/25 09:44:02;;;;;;;335.35;61.60;;;;;;;-147.95;100.00;58458.38;5069014;28;20184;-79
2023/08/25 09:46:28;;;;;;;;;;;;;;;-147.95;100.00;58458.38;5089644;28;20486;-80
2023/08/25 09:49:03;;;;;;;213.90;52.88;;;;;;;-147.95;100.00;58458.38;5089064;28;19916;-80
2023/08/25 09:51:43;;;;;;;238.05;56.05;;;;;;;-147.95;100.00;58458.38;5088537;28;20180;-79
2023/08/25 09:54:10;;;;;;;181.55;53.70;;;;;;;-147.95;100.00;58458.38;5083166;28;20068;-80
2023/08/25 09:56:36;;;;;;;293.45;57.17;;;;;;;-147.95;100.00;58458.38;5088979;28;20027;-81
2023/08/25 09:59:06;;;;;;;186.63;49.78;;;;;;;-147.95;100.00;58458.38;5085346;28;20028;-85
2023/08/25 10:01:33;;;;;;;246.70;54.90;;;;;;;-147.95;100.00;58458.38;5087477;28;20023;-84
2023/08/25 10:03:59;;;;;;;192.52;48.67;;;;;;;-147.95;100.00;58458.38;5071811;28;20062;-86
2023/08/25 10:06:25;;;;;;;170.13;45.22;;;;;;;-147.95;100.00;58458.38;5080136;28;20027;-85
2023/08/25 10:08:54;;;;;;;184.35;43.70;;;;;;;-147.95;100.00;58458.38;5089386;28;20020;-85
2023/08/25 10:11:20;;;;;;;131.10;38.60;;;;;;;-147.95;100.00;58458.38;5083318;28;20066;-86
2023/08/25 10:13:51;;;;;;;153.00;40.83;;;;;;;-147.95;100.00;58458.38;5084800;28;20028;-86
2023/08/25 10:16:19;;;;;;;135.02;39.05;;;;;;;-147.95;100.00;58458.38;5082351;28;20115;-87
2023/08/25 10:18:45;;;;;;;169.07;41.17;;;;;;;-147.95;100.00;58458.38;5085019;28;20020;-87
2023/08/25 10:21:13;;;;;;;125.05;37.92;;;;;;;-147.95;100.00;58458.38;5087703;28;20038;-86
2023/08/25 10:23:40;;;;;;;132.73;36.53;;;;;;;-147.95;100.00;58458.38;5086938;28;20554;-86
2023/08/25 10:26:06;;;;;;;122.18;34.30;;;;;;;-147.95;100.00;58458.38;5081853;28;20036;-86
2023/08/25 10:28:34;;;;;;;125.57;36.80;;;;;;;-147.95;100.00;58458.38;5086808;28;20089;-86
2023/08/25 10:31:01;;;;;;;118.38;34.08;;;;;;;-147.95;100.00;58458.38;5091059;28;20040;-87
2023/08/25 10:33:27;;;;;;;99.75;31.77;;;;;;;-147.95;100.00;58458.38;5083416;28;20036;-89
2023/08/25 10:35:55;;;;;;;76.90;28.42;;;;;;;-147.95;100.00;58458.38;5070491;28;20136;-88
2023/08/25 10:38:34;;;;;;;93.30;29.98;;;;;;;-147.95;100.00;58458.38;5073278;28;20051;-88
2023/08/25 10:41:11;;;;;;;90.93;28.50;;;;;;;-147.95;100.00;58458.38;5088385;28;20024;-87
2023/08/25 10:43:40;;;;;;;90.95;29.75;;;;;;;-147.95;100.00;58458.38;5088037;28;20048;-88
2023/08/25 10:46:09;;;;;;;92.88;30.00;;;;;;;-147.95;100.00;58458.38;5087742;28;20028;-87
2023/08/25 10:48:38;;;;;;;83.40;29.95;;;;;;;-147.95;100.00;58458.38;5087973;28;20032;-87
2023/08/25 10:51:15;;;;;;;94.22;31.50;;;;;;;-147.95;100.00;58458.38;5080508;28;20034;-87
2023/08/25 10:53:51;;;;;;;112.38;32.95;;;;;;;-147.95;100.00;58458.38;5085073;28;20027;-87